Time;durP1;ratioP1;P1;durP2;ratioP2;P2;SDS_P1;SDS_P2;PMS_P1;PMS_P2;Temp;Humidity;BMP_temperature;BMP_pressure;BME280_temperature;BME280_humidity;BME280_pressure;Samples;Min_cycle;Max_cycle;Signal;HPM_P1;HPM_P2
2022/05/28 00:00:17;;;;;;;14.17;8.17;;;;;;;23.29;60.28;99153.56;4991838;28;20193;-61
2022/05/28 00:02:44;;;;;;;14.27;8.73;;;;;;;23.30;60.64;99153.47;4992092;28;20578;-61
2022/05/28 00:05:13;;;;;;;13.33;8.30;;;;;;;23.31;60.15;99146.47;4991785;28;20237;-61
2022/05/28 00:07:40;;;;;;;11.70;8.33;;;;;;;23.31;60.20;99149.94;4991838;28;20197;-62
2022/05/28 00:10:09;;;;;;;13.67;7.90;;;;;;;23.33;59.98;99149.88;4991607;28;20232;-61
2022/05/28 00:12:36;;;;;;;17.50;8.23;;;;;;;23.33;60.24;99142.00;4991652;28;20218;-62
2022/05/28 00:15:03;;;;;;;13.43;8.80;;;;;;;23.35;59.87;99142.78;4991174;28;20455;-62
2022/05/28 00:17:30;;;;;;;11.30;8.30;;;;;;;23.30;59.99;99131.66;4991714;28;20205;-61
2022/05/28 00:19:57;;;;;;;12.30;8.23;;;;;;;23.27;60.38;99135.25;4991468;28;20641;-62
2022/05/28 00:22:25;;;;;;;14.37;8.13;;;;;;;23.27;60.39;99129.16;4991271;28;20593;-60
2022/05/28 00:24:52;;;;;;;11.93;7.77;;;;;;;23.26;60.15;99125.69;4991756;28;20198;-61
2022/05/28 00:27:18;;;;;;;12.43;8.40;;;;;;;23.23;60.63;99122.34;4989919;28;20221;-62
2022/05/28 00:29:45;;;;;;;16.17;8.97;;;;;;;23.22;61.04;99123.25;4990693;28;20194;-61
2022/05/28 00:32:12;;;;;;;10.63;8.20;;;;;;;23.26;60.64;99116.97;4990668;28;20672;-61
2022/05/28 00:34:40;;;;;;;11.77;8.83;;;;;;;23.24;61.18;99111.78;4990987;28;20577;-61
2022/05/28 00:37:07;;;;;;;15.38;9.65;;;;;;;23.23;61.57;99102.22;4990199;28;20444;-61
2022/05/28 00:39:36;;;;;;;16.43;8.40;;;;;;;23.06;60.99;99060.13;4990988;28;20225;-62
2022/05/28 00:42:03;;;;;;;11.33;8.13;;;;;;;23.28;61.16;99102.03;4990696;28;20673;-62
2022/05/28 00:44:30;;;;;;;12.60;8.57;;;;;;;23.26;61.23;99111.72;4988558;28;20662;-61
2022/05/28 00:46:59;;;;;;;11.90;8.87;;;;;;;23.13;61.33;99094.81;4989577;28;20194;-62
2022/05/28 00:49:30;;;;;;;11.77;8.60;;;;;;;23.24;61.35;99122.25;4990370;28;20198;-55
2022/05/28 00:52:00;;;;;;;18.83;9.17;;;;;;;23.24;61.90;99124.88;4990506;28;20218;-55
2022/05/28 00:54:32;;;;;;;12.87;9.33;;;;;;;23.17;61.60;99112.97;4990251;28;20277;-55
2022/05/28 00:57:02;;;;;;;11.20;9.07;;;;;;;23.14;61.76;99114.84;4990376;28;20272;-55
2022/05/28 00:59:29;;;;;;;11.00;9.00;;;;;;;23.14;61.67;99123.56;4990611;28;20569;-62
2022/05/28 01:02:01;;;;;;;12.43;10.30;;;;;;;23.15;61.27;99121.81;4990857;28;20183;-61
2022/05/28 01:04:35;;;;;;;14.40;8.60;;;;;;;23.10;61.60;99121.97;4990737;28;20641;-61
2022/05/28 01:07:09;;;;;;;13.77;8.53;;;;;;;23.04;61.84;99119.63;4992591;28;20190;-61
2022/05/28 01:09:44;;;;;;;14.90;9.20;;;;;;;23.00;62.25;99119.78;4992537;28;20641;-61
2022/05/28 01:12:16;;;;;;;15.30;9.43;;;;;;;22.94;62.50;99115.63;4991783;28;20631;-63
2022/05/28 01:14:52;;;;;;;17.67;9.63;;;;;;;22.91;63.31;99121.00;4993828;28;20182;-56
2022/05/28 01:17:25;;;;;;;11.80;9.50;;;;;;;22.83;63.81;99126.53;4993974;28;21073;-56
2022/05/28 01:20:01;;;;;;;16.23;9.30;;;;;;;22.76;64.08;99117.22;4992311;28;20190;-56
2022/05/28 01:22:43;;;;;;;19.47;10.80;;;;;;;22.72;64.96;99128.72;4991555;28;20225;-56
2022/05/28 01:25:22;;;;;;;18.83;11.57;;;;;;;22.60;65.81;99130.94;4991778;28;20440;-56
2022/05/28 01:27:53;;;;;;;14.90;11.00;;;;;;;22.56;65.89;99122.34;4994236;28;20601;-55
2022/05/28 01:30:20;;;;;;;15.03;11.27;;;;;;;22.52;66.49;99130.38;4992021;28;20209;-55
2022/05/28 01:32:52;;;;;;;13.83;11.57;;;;;;;22.47;66.50;99124.47;4992749;28;20221;-55
2022/05/28 01:35:21;;;;;;;15.13;11.47;;;;;;;22.45;66.68;99126.28;4992393;28;20202;-55
2022/05/28 01:37:50;;;;;;;21.10;11.83;;;;;;;22.42;66.73;99126.38;4990651;28;20202;-55
2022/05/28 01:40:20;;;;;;;14.93;10.80;;;;;;;22.37;67.21;99129.19;4992983;28;20562;-55
2022/05/28 01:42:52;;;;;;;18.57;12.30;;;;;;;22.28;67.07;99116.44;4992094;28;20249;-55
2022/05/28 01:45:22;;;;;;;17.00;11.50;;;;;;;22.34;67.48;99124.91;4993053;28;20191;-55
2022/05/28 01:47:52;;;;;;;19.43;12.50;;;;;;;22.30;67.78;99120.69;4993375;28;21334;-55
2022/05/28 01:50:21;;;;;;;19.00;11.83;;;;;;;22.33;67.71;99122.38;4993807;28;20669;-55
2022/05/28 01:52:49;;;;;;;20.00;12.03;;;;;;;22.30;67.74;99117.25;4993970;28;20221;-56
2022/05/28 01:55:18;;;;;;;15.87;11.73;;;;;;;22.28;67.59;99114.66;4993734;28;20202;-55
2022/05/28 01:57:45;;;;;;;16.53;11.00;;;;;;;22.25;68.00;99119.16;4994000;28;20194;-55
2022/05/28 02:00:14;;;;;;;19.75;12.23;;;;;;;22.25;67.87;99119.16;4993573;28;20954;-55
2022/05/28 02:02:41;;;;;;;18.77;13.13;;;;;;;22.18;68.03;99115.06;4993879;28;20190;-55
2022/05/28 02:05:10;;;;;;;17.03;10.73;;;;;;;22.19;67.75;99108.94;4993570;28;20190;-56
2022/05/28 02:07:37;;;;;;;19.47;11.10;;;;;;;22.21;67.83;99101.88;4993497;28;20198;-55
2022/05/28 02:10:08;;;;;;;16.37;10.90;;;;;;;22.19;68.18;99106.31;4993528;28;20194;-55
2022/05/28 02:12:42;;;;;;;16.50;11.43;;;;;;;22.10;68.61;99099.66;4993837;28;20218;-55
2022/05/28 02:15:22;;;;;;;21.90;11.97;;;;;;;22.07;69.03;99094.53;4993865;28;20198;-55
2022/05/28 02:17:52;;;;;;;18.60;12.43;;;;;;;22.08;68.81;99100.63;4992837;28;20194;-55
2022/05/28 02:20:27;;;;;;;18.07;11.73;;;;;;;22.06;69.13;99094.56;4993408;28;20198;-56
2022/05/28 02:22:58;;;;;;;18.90;12.53;;;;;;;21.93;69.02;99072.38;4992592;28;20439;-56
2022/05/28 02:25:30;;;;;;;18.47;11.90;;;;;;;22.14;68.73;99101.22;4993390;28;20198;-56
2022/05/28 02:28:00;;;;;;;20.73;13.37;;;;;;;22.13;68.76;99106.53;4993405;28;20229;-56
2022/05/28 02:30:29;;;;;;;19.47;11.43;;;;;;;22.09;69.03;99105.78;4993545;28;20200;-56
2022/05/28 02:33:01;;;;;;;14.77;11.47;;;;;;;22.00;69.29;99110.53;4993158;28;20728;-56
2022/05/28 02:35:28;;;;;;;17.45;12.60;;;;;;;21.88;70.27;99111.81;4992950;28;20451;-56
2022/05/28 02:37:55;;;;;;;20.37;12.20;;;;;;;21.82;70.99;99121.59;4993398;28;20198;-56
2022/05/28 02:40:22;;;;;;;21.80;12.20;;;;;;;21.62;71.89;99123.13;4993050;28;20201;-56
2022/05/28 02:42:49;;;;;;;17.00;12.47;;;;;;;21.43;73.01;99124.66;4993099;28;20281;-55
2022/05/28 02:45:16;;;;;;;16.93;12.27;;;;;;;21.23;73.36;99126.25;4993075;28;20301;-56
2022/05/28 02:47:45;;;;;;;18.63;12.97;;;;;;;21.17;73.73;99129.91;4993086;28;20205;-56
2022/05/28 02:50:12;;;;;;;20.17;12.87;;;;;;;21.00;73.84;99137.38;4993065;28;20249;-55
2022/05/28 02:52:39;;;;;;;18.13;13.30;;;;;;;20.96;74.43;99130.53;4992639;28;20225;-55
2022/05/28 02:55:07;;;;;;;18.47;12.30;;;;;;;20.89;74.41;99134.25;4992951;28;20202;-55
2022/05/28 02:57:33;;;;;;;18.83;13.30;;;;;;;20.92;74.23;99144.59;4992288;28;20440;-55
2022/05/28 03:00:00;;;;;;;18.03;12.13;;;;;;;20.93;74.10;99141.94;4992707;28;20194;-56
2022/05/28 03:02:28;;;;;;;19.43;11.87;;;;;;;20.79;74.64;99140.66;4992673;28;20588;-57
2022/05/28 03:04:57;;;;;;;20.50;12.67;;;;;;;20.73;74.96;99138.25;4992864;28;20222;-56
2022/05/28 03:07:23;;;;;;;19.77;13.00;;;;;;;20.77;74.59;99126.78;4990520;28;20609;-55
2022/05/28 03:09:50;;;;;;;18.87;12.33;;;;;;;20.84;74.44;99121.34;4992063;28;20260;-56
2022/05/28 03:12:17;;;;;;;17.73;12.57;;;;;;;20.99;73.96;99122.59;4991999;28;20210;-55
2022/05/28 03:14:44;;;;;;;18.97;12.03;;;;;;;21.10;73.71;99136.22;4991799;28;20194;-55
2022/05/28 03:17:11;;;;;;;15.63;12.00;;;;;;;21.20;73.29;99139.41;4991960;28;20205;-55
2022/05/28 03:19:38;;;;;;;21.60;12.97;;;;;;;21.17;73.23;99142.97;4992096;28;20178;-55
2022/05/28 03:22:06;;;;;;;16.93;12.17;;;;;;;21.23;72.87;99145.38;4988345;28;20280;-62
2022/05/28 03:24:33;;;;;;;17.70;12.73;;;;;;;21.25;72.71;99145.31;4990525;28;20201;-61
2022/05/28 03:27:00;;;;;;;14.87;13.13;;;;;;;21.30;72.85;99149.50;4992841;28;20183;-60
2022/05/28 03:29:27;;;;;;;18.00;13.57;;;;;;;21.40;72.69;99152.69;4991324;28;20198;-62
2022/05/28 03:31:54;;;;;;;21.98;16.45;;;;;;;21.46;72.84;99153.31;4991317;28;20787;-61
2022/05/28 03:34:20;;;;;;;17.30;15.50;;;;;;;21.46;73.07;99148.09;4992303;28;20202;-61
2022/05/28 03:36:47;;;;;;;18.70;16.47;;;;;;;21.49;72.99;99150.59;4992352;28;20198;-62
2022/05/28 03:39:15;;;;;;;19.67;15.97;;;;;;;21.54;72.81;99148.69;4991990;28;20201;-62
2022/05/28 03:41:42;;;;;;;19.50;17.30;;;;;;;21.72;72.85;99161.16;4992064;28;20569;-61
2022/05/28 03:44:11;;;;;;;20.97;17.27;;;;;;;21.81;72.22;99170.41;4991891;28;20194;-62
2022/05/28 03:46:39;;;;;;;21.10;18.02;;;;;;;21.84;72.39;99174.72;4990109;28;20455;-60
2022/05/28 03:49:08;;;;;;;20.43;16.57;;;;;;;21.97;71.84;99176.03;4991848;28;20732;-61
2022/05/28 03:51:35;;;;;;;18.13;16.23;;;;;;;21.96;71.77;99179.53;4992007;28;20197;-62
2022/05/28 03:54:03;;;;;;;20.20;16.73;;;;;;;21.98;71.53;99172.50;4991858;28;20225;-61
2022/05/28 03:56:36;;;;;;;19.97;17.53;;;;;;;22.01;71.20;99182.84;4992291;28;20317;-61
2022/05/28 03:59:05;;;;;;;18.33;16.50;;;;;;;21.93;71.10;99185.75;4991672;28;20201;-62
2022/05/28 04:01:31;;;;;;;17.13;15.23;;;;;;;22.00;70.53;99186.38;4992215;28;20205;-61
2022/05/28 04:03:58;;;;;;;23.30;14.67;;;;;;;22.11;69.49;99189.50;4979911;28;20194;-62
2022/05/28 04:06:25;;;;;;;21.07;14.57;;;;;;;22.30;68.31;99196.59;4982750;28;20948;-62
2022/05/28 04:08:52;;;;;;;17.88;15.40;;;;;;;22.51;68.00;99200.22;4982073;28;20440;-62
2022/05/28 04:11:19;;;;;;;22.53;15.90;;;;;;;22.62;68.32;99200.69;4991670;28;20194;-61
2022/05/28 04:13:47;;;;;;;26.13;16.93;;;;;;;22.63;69.34;99197.19;4991634;28;20964;-61
2022/05/28 04:16:15;;;;;;;18.77;16.87;;;;;;;22.78;69.27;99199.22;4991529;28;20669;-62
2022/05/28 04:18:41;;;;;;;20.93;16.47;;;;;;;22.87;69.12;99203.25;4991721;28;20574;-63
2022/05/28 04:21:09;;;;;;;17.20;14.00;;;;;;;22.95;68.37;99209.06;4991359;28;20229;-61
2022/05/28 04:23:36;;;;;;;20.23;14.35;;;;;;;22.95;68.98;99216.06;4991114;28;20442;-61
2022/05/28 04:26:02;;;;;;;16.70;13.20;;;;;;;22.95;68.36;99216.06;4991461;28;20205;-61
2022/05/28 04:28:30;;;;;;;21.63;14.07;;;;;;;22.94;69.04;99217.81;4991779;28;20209;-62
2022/05/28 04:30:58;;;;;;;15.03;12.47;;;;;;;22.94;68.73;99220.44;4991397;28;20605;-62
2022/05/28 04:33:25;;;;;;;15.27;12.50;;;;;;;22.91;68.91;99229.28;4991184;28;20209;-61
2022/05/28 04:35:52;;;;;;;15.97;13.17;;;;;;;22.97;68.51;99214.25;4991336;28;20209;-62
2022/05/28 04:38:18;;;;;;;15.03;12.10;;;;;;;22.99;68.28;99201.94;4991520;28;20209;-62
2022/05/28 04:40:45;;;;;;;19.50;13.20;;;;;;;23.06;68.19;99209.50;4990724;28;20198;-61
2022/05/28 04:43:12;;;;;;;13.40;11.20;;;;;;;23.16;68.18;99213.47;4991064;28;20557;-62
2022/05/28 04:45:39;;;;;;;16.58;11.82;;;;;;;23.27;67.70;99213.03;4989546;28;20459;-62
2022/05/28 04:48:08;;;;;;;15.43;11.83;;;;;;;23.35;67.30;99208.34;4991008;28;20207;-62
2022/05/28 04:50:35;;;;;;;16.60;11.63;;;;;;;23.47;67.41;99189.53;4991028;28;20201;-62
2022/05/28 04:53:01;;;;;;;16.27;11.17;;;;;;;23.52;66.69;99187.56;4981358;28;20203;-62
2022/05/28 04:55:28;;;;;;;11.97;10.27;;;;;;;23.56;66.28;99194.41;4985830;28;20584;-62
2022/05/28 04:57:55;;;;;;;12.90;10.87;;;;;;;23.52;66.69;99184.94;4971545;28;20289;-61
2022/05/28 05:00:26;;;;;;;15.90;10.30;;;;;;;23.45;66.42;99176.50;4989280;28;20210;-62
2022/05/28 05:02:53;;;;;;;12.50;10.80;;;;;;;23.58;67.01;99186.47;4991152;28;20194;-62
2022/05/28 05:05:22;;;;;;;15.30;11.10;;;;;;;23.71;66.28;99183.28;4990831;28;20202;-62
2022/05/28 05:07:49;;;;;;;14.77;10.63;;;;;;;23.66;65.89;99177.38;4990212;28;20194;-63
2022/05/28 05:10:15;;;;;;;15.37;11.23;;;;;;;23.84;65.49;99183.63;4991205;28;20662;-62
2022/05/28 05:12:42;;;;;;;12.97;11.13;;;;;;;23.80;65.39;99182.03;4989783;28;20213;-62
2022/05/28 05:15:10;;;;;;;14.37;11.83;;;;;;;23.91;65.37;99171.94;4990244;28;20194;-61
2022/05/28 05:17:37;;;;;;;16.23;11.40;;;;;;;24.01;64.90;99179.34;4990029;28;20578;-62
2022/05/28 05:20:04;;;;;;;15.93;12.80;;;;;;;24.09;64.25;99171.16;4990223;28;20190;-61
2022/05/28 05:22:32;;;;;;;15.63;11.67;;;;;;;24.20;63.35;99168.91;4989408;28;20448;-61
2022/05/28 05:24:59;;;;;;;12.73;11.07;;;;;;;24.31;63.63;99178.97;4989684;28;20437;-62
2022/05/28 05:27:27;;;;;;;20.67;12.60;;;;;;;24.35;62.46;99167.41;4990133;28;20202;-62
2022/05/28 05:29:57;;;;;;;16.60;11.13;;;;;;;24.41;62.38;99173.25;4990078;28;20265;-62
2022/05/28 05:32:25;;;;;;;13.37;11.97;;;;;;;24.51;61.52;99165.78;4987792;28;20218;-63
2022/05/28 05:34:52;;;;;;;13.97;10.90;;;;;;;24.57;61.86;99173.38;4989815;28;20190;-63
2022/05/28 05:37:19;;;;;;;16.90;11.95;;;;;;;24.72;61.22;99180.59;4989295;28;20456;-62
2022/05/28 05:39:47;;;;;;;19.47;11.63;;;;;;;24.78;60.71;99172.38;4990346;28;20210;-62
2022/05/28 05:42:14;;;;;;;15.80;11.27;;;;;;;24.82;59.59;99192.41;4989344;28;20851;-61
2022/05/28 05:44:41;;;;;;;20.00;11.33;;;;;;;25.01;58.91;99201.13;4990106;28;20199;-62
2022/05/28 05:47:08;;;;;;;21.13;11.70;;;;;;;25.14;58.59;99183.84;4990570;28;20198;-62
2022/05/28 05:49:36;;;;;;;16.10;11.57;;;;;;;25.18;59.06;99203.81;4990612;28;20190;-61
2022/05/28 05:52:04;;;;;;;18.87;11.43;;;;;;;25.12;58.91;99190.97;4990504;28;20278;-62
2022/05/28 05:54:31;;;;;;;13.50;11.37;;;;;;;24.74;59.93;99202.38;4993737;28;20224;-62
2022/05/28 05:57:00;;;;;;;18.08;12.27;;;;;;;24.67;60.84;99203.56;4992907;28;20443;-62
2022/05/28 05:59:27;;;;;;;19.67;11.37;;;;;;;25.10;59.43;99200.72;4993946;28;20674;-62
2022/05/28 06:01:54;;;;;;;13.07;10.63;;;;;;;25.41;58.08;99204.50;4993163;28;20213;-62
2022/05/28 06:04:21;;;;;;;16.17;10.97;;;;;;;25.53;56.82;99210.03;4974070;28;20327;-62
2022/05/28 06:06:48;;;;;;;19.63;10.87;;;;;;;25.32;58.07;99215.44;4974074;28;20195;-62
2022/05/28 06:09:15;;;;;;;18.13;11.02;;;;;;;25.13;58.53;99218.94;4974127;28;20587;-62
2022/05/28 06:11:41;;;;;;;15.93;11.70;;;;;;;24.90;58.94;99216.56;4973058;28;20445;-63
2022/05/28 06:14:10;;;;;;;16.53;11.00;;;;;;;25.02;59.27;99228.28;4974081;28;20218;-63
2022/05/28 06:16:37;;;;;;;17.87;11.50;;;;;;;25.12;59.20;99232.16;4974189;28;20198;-62
2022/05/28 06:19:05;;;;;;;15.53;11.40;;;;;;;25.08;59.71;99223.56;4973877;28;20191;-63
2022/05/28 06:21:32;;;;;;;19.60;11.83;;;;;;;25.14;60.07;99220.66;4973655;28;20325;-63
2022/05/28 06:24:01;;;;;;;14.60;12.70;;;;;;;25.04;60.76;99224.66;4973719;28;20205;-63
2022/05/28 06:26:28;;;;;;;20.03;12.47;;;;;;;25.08;61.07;99220.06;4973457;28;20289;-62
2022/05/28 06:28:55;;;;;;;24.83;12.67;;;;;;;24.95;61.68;99225.06;4973686;28;20194;-63
2022/05/28 06:31:23;;;;;;;15.57;11.95;;;;;;;25.14;61.20;99225.06;4973665;28;20531;-63
2022/05/28 06:33:50;;;;;;;19.10;11.90;;;;;;;25.37;60.41;99213.44;4973477;28;20223;-63
2022/05/28 06:36:17;;;;;;;15.73;12.43;;;;;;;25.41;59.16;99207.13;4973429;28;20195;-63
2022/05/28 06:38:45;;;;;;;18.63;12.37;;;;;;;25.76;57.94;99220.28;4973380;28;20195;-63
2022/05/28 06:41:12;;;;;;;18.87;12.43;;;;;;;26.07;57.33;99214.31;4973988;28;20206;-62
2022/05/28 06:43:40;;;;;;;17.70;11.30;;;;;;;26.30;56.51;99215.78;4973262;28;20194;-62
2022/05/28 06:46:09;;;;;;;16.42;11.48;;;;;;;26.40;55.77;99216.19;4973123;28;20465;-62
2022/05/28 06:48:37;;;;;;;14.45;10.57;;;;;;;26.57;55.00;99222.25;4973323;28;20214;-62
2022/05/28 06:51:04;;;;;;;14.67;10.10;;;;;;;26.72;54.30;99218.81;4972428;28;20449;-63
2022/05/28 06:53:33;;;;;;;12.45;10.15;;;;;;;26.86;53.52;99218.91;4979710;28;20556;-64
2022/05/28 06:56:00;;;;;;;19.38;10.60;;;;;;;26.95;53.08;99209.66;4992283;28;20222;-56
2022/05/28 06:58:27;;;;;;;15.75;9.85;;;;;;;26.93;52.05;99214.16;4992097;28;20194;-56
2022/05/28 07:00:54;;;;;;;16.33;9.77;;;;;;;26.90;52.77;99211.69;4992419;28;20198;-56
2022/05/28 07:03:24;;;;;;;19.83;9.90;;;;;;;27.07;52.61;99210.78;4992083;28;20194;-55
2022/05/28 07:05:52;;;;;;;15.68;10.43;;;;;;;27.06;52.92;99209.91;4990882;28;20553;-55
2022/05/28 07:08:19;;;;;;;17.70;10.23;;;;;;;27.08;52.24;99200.16;4991946;28;20195;-56
2022/05/28 07:10:48;;;;;;;12.90;9.63;;;;;;;27.11;52.15;99183.31;4992025;28;20202;-55
2022/05/28 07:13:16;;;;;;;15.20;10.05;;;;;;;27.30;51.88;99183.97;4992174;28;20221;-55
2022/05/28 07:15:43;;;;;;;13.32;9.98;;;;;;;27.40;51.48;99172.81;4991994;28;20194;-56
2022/05/28 07:18:10;;;;;;;11.98;9.57;;;;;;;27.46;51.42;99171.63;4991656;28;20209;-55
2022/05/28 07:20:38;;;;;;;16.60;8.93;;;;;;;27.46;49.85;99169.84;4991486;28;20201;-55
2022/05/28 07:23:12;;;;;;;17.20;8.80;;;;;;;27.61;50.04;99173.38;4991515;28;20190;-56
2022/05/28 07:25:39;;;;;;;12.43;9.57;;;;;;;27.72;50.61;99175.38;4991589;28;20197;-56
2022/05/28 07:30:47;;;;;;;15.63;9.55;;;;;;;27.96;50.12;99163.38;4990867;28;20203;-55
2022/05/28 07:33:14;;;;;;;13.23;9.20;;;;;;;27.99;50.14;99165.84;4991605;28;20194;-55
2022/05/28 07:35:41;;;;;;;16.63;10.05;;;;;;;28.02;50.40;99163.00;4984327;28;20206;-55
2022/05/28 07:38:08;;;;;;;15.50;9.80;;;;;;;28.13;50.46;99150.00;4976149;28;20203;-55
2022/05/28 07:40:36;;;;;;;15.57;10.23;;;;;;;28.06;50.01;99146.06;4971103;28;20457;-55
2022/05/28 07:43:03;;;;;;;15.07;9.63;;;;;;;28.28;49.70;99143.81;4971766;28;20586;-56
2022/05/28 07:45:30;;;;;;;13.82;9.63;;;;;;;28.49;48.67;99136.31;4971938;28;20194;-55
2022/05/28 07:47:57;;;;;;;18.35;10.32;;;;;;;28.48;49.47;99132.00;4971974;28;20198;-56
2022/05/28 07:50:24;;;;;;;19.02;9.95;;;;;;;28.43;48.81;99127.00;4971247;28;20274;-55
2022/05/28 07:52:51;;;;;;;14.02;9.45;;;;;;;28.40;48.85;99123.72;4970488;28;20210;-56
2022/05/28 07:55:18;;;;;;;15.73;9.93;;;;;;;28.46;49.09;99112.72;4969989;28;20449;-55
2022/05/28 07:57:46;;;;;;;14.20;9.63;;;;;;;28.71;48.06;99104.97;4971011;28;20199;-56
2022/05/28 08:00:14;;;;;;;15.25;9.68;;;;;;;28.64;48.40;99101.03;4971387;28;20202;-55
2022/05/28 08:02:41;;;;;;;14.20;10.05;;;;;;;28.60;48.47;99089.78;4970988;28;20203;-55
2022/05/28 08:05:08;;;;;;;13.32;10.38;;;;;;;28.76;49.26;99080.91;4971335;28;20202;-56
2022/05/28 08:07:36;;;;;;;13.88;10.27;;;;;;;29.00;48.48;99081.94;4971066;28;20222;-56
2022/05/28 08:10:02;;;;;;;16.77;9.77;;;;;;;29.01;48.12;99076.53;4971089;28;20198;-56
2022/05/28 08:12:29;;;;;;;23.50;10.95;;;;;;;28.95;47.95;99073.47;4971301;28;20199;-56
2022/05/28 08:14:58;;;;;;;12.85;9.20;;;;;;;29.00;48.11;99069.56;4970678;28;20226;-56
2022/05/28 08:17:25;;;;;;;17.53;11.27;;;;;;;29.03;48.32;99064.09;4969960;28;20818;-56
2022/05/28 08:19:52;;;;;;;16.00;10.52;;;;;;;29.32;47.63;99062.16;4970945;28;20199;-56
2022/05/28 08:25:04;;;;;;;16.02;10.50;;;;;;;29.73;47.13;99051.41;4971336;28;20238;-56
2022/05/28 08:27:30;;;;;;;12.77;8.85;;;;;;;29.97;46.17;99049.72;4987661;28;20409;-56
2022/05/28 08:29:59;;;;;;;13.23;9.80;;;;;;;30.12;45.88;99037.22;5003069;28;20201;-57
2022/05/28 08:32:26;;;;;;;15.13;11.27;;;;;;;30.36;44.14;99038.09;5001543;28;20443;-57
2022/05/28 08:34:52;;;;;;;13.18;9.60;;;;;;;30.56;44.92;99029.59;4992711;28;20567;-55
2022/05/28 08:37:19;;;;;;;12.35;8.85;;;;;;;30.59;42.77;99032.03;5010297;28;20197;-56
2022/05/28 08:39:46;;;;;;;13.93;9.40;;;;;;;30.31;43.57;99030.50;5010522;28;20201;-56
2022/05/28 08:42:15;;;;;;;15.05;9.50;;;;;;;30.43;43.67;99025.31;5010311;28;20198;-56
2022/05/28 08:44:43;;;;;;;14.32;9.38;;;;;;;30.22;43.61;99031.16;5009765;28;20446;-56
2022/05/28 08:47:15;;;;;;;14.98;9.00;;;;;;;29.99;43.25;99033.75;5010057;28;20212;-56
2022/05/28 08:49:43;;;;;;;17.77;10.48;;;;;;;29.83;43.88;99031.31;5009421;28;20204;-57
2022/05/28 08:52:14;;;;;;;17.33;12.38;;;;;;;29.74;44.29;99035.44;5009819;28;20189;-56
2022/05/28 08:54:56;;;;;;;13.40;8.30;;;;;;;29.81;43.18;99034.06;5009960;28;20723;-56
2022/05/28 08:57:42;;;;;;;14.30;8.77;;;;;;;29.81;44.14;99031.41;5008063;28;20193;-56
2022/05/28 09:00:12;;;;;;;12.23;7.88;;;;;;;29.60;43.50;99022.28;4983176;28;20669;-56
2022/05/28 09:02:43;;;;;;;14.27;9.60;;;;;;;29.53;44.44;99012.22;4971373;28;20273;-55
2022/05/28 09:05:21;;;;;;;14.85;9.02;;;;;;;29.51;43.74;99001.72;4970594;28;20195;-55
2022/05/28 09:07:48;;;;;;;16.38;9.52;;;;;;;29.75;43.15;98988.56;4975399;28;20444;-56
2022/05/28 09:10:14;;;;;;;12.07;9.00;;;;;;;29.89;42.94;98990.31;4990639;28;20218;-56
2022/05/28 09:12:45;;;;;;;16.33;9.85;;;;;;;30.08;42.97;98986.22;4990894;28;20210;-55
2022/05/28 09:15:13;;;;;;;12.35;8.43;;;;;;;30.29;42.50;98982.03;4991508;28;20253;-55
2022/05/28 09:17:45;;;;;;;11.45;8.90;;;;;;;30.38;42.19;98981.38;4989899;28;20194;-55
2022/05/28 09:20:16;;;;;;;13.25;8.73;;;;;;;30.32;42.81;98987.13;4989568;28;20646;-56
2022/05/28 09:22:44;;;;;;;14.77;8.73;;;;;;;30.29;42.38;98976.75;4989706;28;20209;-55
2022/05/28 09:25:12;;;;;;;14.63;7.55;;;;;;;30.17;41.43;98974.97;4989461;28;20304;-55
2022/05/28 09:27:52;;;;;;;10.65;7.90;;;;;;;30.12;40.72;98984.22;4990222;28;20466;-56
2022/05/28 09:30:26;;;;;;;10.95;9.57;;;;;;;29.91;44.69;98996.34;4993734;28;20198;-56
2022/05/28 09:33:09;;;;;;;13.57;10.32;;;;;;;30.12;45.75;99000.09;4993657;28;20274;-56
2022/05/28 09:35:50;;;;;;;17.45;11.43;;;;;;;29.71;47.75;98990.59;4993474;28;20621;-55
2022/05/28 09:38:22;;;;;;;18.75;10.30;;;;;;;29.49;46.77;98992.19;4993759;28;20604;-55
2022/05/28 09:40:52;;;;;;;16.75;10.70;;;;;;;29.23;48.69;98991.31;4993529;28;20578;-56
2022/05/28 09:43:33;;;;;;;10.73;9.60;;;;;;;29.17;49.34;98983.78;4993208;28;20200;-55
2022/05/28 09:46:13;;;;;;;17.08;11.20;;;;;;;28.97;48.86;98984.25;4991178;28;20620;-55
2022/05/28 09:48:42;;;;;;;15.00;11.13;;;;;;;28.92;50.10;98978.44;4988500;28;20950;-62
2022/05/28 09:51:22;;;;;;;17.02;10.50;;;;;;;28.84;50.12;98978.09;4992576;28;20206;-62
2022/05/28 09:56:43;;;;;;;12.70;10.32;;;;;;;28.65;50.90;98989.06;4990692;28;20181;-63
2022/05/28 09:59:22;;;;;;;12.65;10.45;;;;;;;28.40;50.85;98965.13;4992552;28;20198;-62
2022/05/28 10:01:55;;;;;;;14.18;10.30;;;;;;;28.45;51.24;98976.25;4988370;28;20696;-63
2022/05/28 10:04:32;;;;;;;11.20;10.02;;;;;;;28.20;51.44;98969.03;4990155;28;20229;-63
2022/05/28 10:07:02;;;;;;;15.27;11.13;;;;;;;28.30;51.08;98959.56;4989299;28;20471;-63
2022/05/28 10:09:32;;;;;;;13.80;9.43;;;;;;;28.15;51.92;98968.50;4991864;28;20464;-63
2022/05/28 10:12:01;;;;;;;20.30;10.93;;;;;;;28.14;51.72;98972.06;4993350;28;20203;-61
2022/05/28 10:14:31;;;;;;;13.23;10.40;;;;;;;27.84;52.19;98979.25;4993185;28;20218;-62
2022/05/28 10:17:00;;;;;;;12.35;9.65;;;;;;;27.78;52.72;98984.91;4992481;28;20199;-63
2022/05/28 10:19:32;;;;;;;15.60;9.63;;;;;;;27.84;52.48;98995.94;4992446;28;20194;-62
2022/05/28 10:22:02;;;;;;;15.00;8.70;;;;;;;27.88;52.10;99000.06;4992545;28;20225;-63
2022/05/28 10:24:42;;;;;;;12.17;9.07;;;;;;;27.90;52.13;99000.84;4992043;28;20448;-63
2022/05/28 10:27:25;;;;;;;15.27;9.48;;;;;;;27.95;51.95;99014.63;4992821;28;20186;-63
2022/05/28 10:29:53;;;;;;;23.60;9.88;;;;;;;27.82;52.05;99015.47;4992409;28;20198;-61
2022/05/28 10:32:29;;;;;;;15.20;9.38;;;;;;;27.80;51.89;99014.72;4992596;28;20190;-63
2022/05/28 10:35:04;;;;;;;11.13;9.13;;;;;;;27.48;52.31;98982.34;4992740;28;20307;-63
2022/05/28 10:37:31;;;;;;;10.10;9.02;;;;;;;27.61;52.59;98993.03;4992741;28;20194;-61
2022/05/28 10:40:10;;;;;;;10.82;9.50;;;;;;;27.51;52.98;98990.09;4992373;28;20194;-62
2022/05/28 10:42:38;;;;;;;15.63;9.63;;;;;;;27.49;52.55;98987.56;4993190;28;20182;-62
2022/05/28 10:45:07;;;;;;;15.07;10.43;;;;;;;27.39;53.09;98982.88;4992385;28;20253;-62
2022/05/28 10:48:03;;;;;;;16.05;9.95;;;;;;;27.38;53.50;98975.91;4992479;28;20178;-63
2022/05/28 10:50:43;;;;;;;15.82;11.93;;;;;;;27.36;54.10;98973.34;4967552;28;20210;-63
2022/05/28 10:53:20;;;;;;;13.75;9.82;;;;;;;27.40;53.92;98980.19;4991879;28;20185;-63
2022/05/28 10:56:11;;;;;;;10.65;9.57;;;;;;;27.31;54.23;98985.97;4989993;28;20577;-63
2022/05/28 10:58:48;;;;;;;15.23;9.82;;;;;;;27.33;54.06;98989.34;4989987;28;20194;-63
2022/05/28 11:01:35;;;;;;;15.13;9.55;;;;;;;27.12;54.61;98984.50;4988070;28;20201;-62
2022/05/28 11:04:32;;;;;;;13.95;9.38;;;;;;;27.17;54.89;98985.94;4972585;28;20199;-62
2022/05/28 11:07:33;;;;;;;13.65;9.93;;;;;;;27.19;54.89;98984.09;4972876;28;20195;-62
2022/05/28 11:10:21;;;;;;;10.68;9.57;;;;;;;27.18;55.24;98978.88;4972820;28;20205;-62
2022/05/28 11:13:06;;;;;;;16.48;9.57;;;;;;;27.17;55.18;98972.75;4972456;28;20202;-62
2022/05/28 11:16:05;;;;;;;13.63;9.55;;;;;;;26.98;55.90;98953.69;4972617;28;20639;-63
2022/05/28 11:18:47;;;;;;;14.13;10.50;;;;;;;27.06;55.77;98942.69;4956004;28;20445;-61
2022/05/28 11:21:31;;;;;;;19.90;9.63;;;;;;;26.83;56.35;98941.41;4972064;28;20237;-61
2022/05/28 11:24:24;;;;;;;15.85;9.73;;;;;;;26.91;55.62;98936.53;4972272;28;20574;-62
2022/05/28 11:27:01;;;;;;;19.30;9.85;;;;;;;26.77;56.10;98929.41;4972310;28;20647;-61
2022/05/28 11:29:48;;;;;;;16.45;9.52;;;;;;;26.84;55.88;98943.94;4972432;28;20202;-61
2022/05/28 11:32:19;;;;;;;11.52;8.80;;;;;;;26.87;55.60;98951.69;4972130;28;20206;-61
2022/05/28 11:34:52;;;;;;;13.02;9.15;;;;;;;26.95;55.34;98954.72;4972157;28;21051;-62
2022/05/28 11:37:24;;;;;;;15.48;9.60;;;;;;;27.02;55.17;98957.84;4972499;28;20194;-63
2022/05/28 11:39:58;;;;;;;11.65;9.13;;;;;;;27.01;54.82;98945.59;4972297;28;20249;-61